Time;durP1;ratioP1;P1;durP2;ratioP2;P2;SDS_P1;SDS_P2;PMS_P1;PMS_P2;Temp;Humidity;BMP_temperature;BMP_pressure;BME280_temperature;BME280_humidity;BME280_pressure;Samples;Min_cycle;Max_cycle;Signal;HPM_P1;HPM_P2
2022/07/01 00:02:02;;;;;;;6.63;4.68;;;26.10;99.50;;;;;;4994451;28;20095;-76
2022/07/01 00:04:28;;;;;;;10.02;4.43;;;26.00;99.50;;;;;;5012020;28;20128;-76
2022/07/01 00:06:54;;;;;;;7.22;3.85;;;26.10;99.70;;;;;;5012008;28;20053;-76
2022/07/01 00:09:21;;;;;;;5.60;3.97;;;26.10;99.90;;;;;;5011984;28;20026;-76
2022/07/01 00:11:46;;;;;;;5.78;3.60;;;26.10;99.90;;;;;;4994345;28;20128;-76
2022/07/01 00:14:13;;;;;;;8.05;4.32;;;26.10;99.90;;;;;;5011817;28;20109;-76
2022/07/01 00:16:38;;;;;;;6.90;4.30;;;26.10;99.90;;;;;;5011905;28;20039;-76
2022/07/01 00:19:05;;;;;;;6.28;4.53;;;26.10;99.90;;;;;;5011969;28;20021;-76
2022/07/01 00:21:31;;;;;;;15.18;4.82;;;26.10;99.90;;;;;;5011843;28;20033;-76
2022/07/01 00:23:57;;;;;;;6.60;4.10;;;26.20;99.90;;;;;;5011982;28;20105;-76
2022/07/01 00:26:23;;;;;;;9.90;4.53;;;26.20;99.90;;;;;;5011887;28;20120;-76
2022/07/01 00:28:49;;;;;;;9.07;4.78;;;26.20;99.90;;;;;;5011702;28;20030;-76
2022/07/01 00:31:15;;;;;;;7.00;4.10;;;26.20;99.90;;;;;;4993983;28;20084;-76
2022/07/01 00:33:40;;;;;;;7.30;5.07;;;26.20;99.90;;;;;;5011912;28;20036;-76
2022/07/01 00:36:06;;;;;;;6.40;3.90;;;26.20;99.90;;;;;;5011521;28;20048;-76
2022/07/01 00:38:32;;;;;;;9.40;4.30;;;26.10;99.90;;;;;;5011729;28;20026;-76
2022/07/01 00:40:58;;;;;;;9.05;4.50;;;26.10;99.90;;;;;;5011755;28;20030;-76
2022/07/01 00:43:24;;;;;;;7.07;4.07;;;26.10;99.90;;;;;;5011621;28;20104;-76
2022/07/01 00:45:51;;;;;;;12.07;4.45;;;25.90;99.90;;;;;;5011502;28;20037;-76
2022/07/01 00:48:19;;;;;;;7.10;4.47;;;25.80;99.90;;;;;;4975412;28;20076;-76
2022/07/01 00:50:45;;;;;;;13.07;4.82;;;25.90;99.90;;;;;;4974396;28;20030;-76
2022/07/01 00:53:13;;;;;;;11.02;4.53;;;25.80;99.90;;;;;;4974356;28;20499;-76
2022/07/01 00:55:40;;;;;;;10.80;4.75;;;25.70;99.90;;;;;;4973921;28;20025;-76
2022/07/01 00:58:06;;;;;;;7.22;5.15;;;25.70;99.90;;;;;;4974512;28;20065;-76
2022/07/01 01:00:32;;;;;;;9.57;5.13;;;25.70;99.90;;;;;;4974202;28;20053;-76
2022/07/01 01:02:58;;;;;;;6.57;4.47;;;25.70;99.90;;;;;;4991914;28;20052;-76
2022/07/01 01:05:25;;;;;;;6.07;4.72;;;25.70;99.90;;;;;;5007696;28;20136;-76
2022/07/01 01:07:51;;;;;;;8.13;4.20;;;25.70;99.90;;;;;;5021114;28;20025;-76
2022/07/01 01:10:18;;;;;;;8.65;4.63;;;25.70;99.90;;;;;;5033905;28;20021;-76
2022/07/01 01:12:44;;;;;;;10.90;4.65;;;25.70;99.90;;;;;;5034999;28;20042;-76
2022/07/01 01:15:10;;;;;;;6.07;4.68;;;25.70;99.90;;;;;;5034796;28;20021;-76
2022/07/01 01:17:37;;;;;;;10.70;4.82;;;25.70;99.90;;;;;;5034731;28;20029;-76
2022/07/01 01:20:03;;;;;;;8.40;4.32;;;25.70;99.90;;;;;;5034968;28;20025;-76
2022/07/01 01:22:29;;;;;;;6.57;4.95;;;25.60;99.90;;;;;;5034866;28;20051;-76
2022/07/01 01:24:57;;;;;;;12.75;4.85;;;25.70;99.90;;;;;;5034785;28;20543;-76
2022/07/01 01:27:23;;;;;;;11.00;4.90;;;25.70;99.90;;;;;;5034862;28;20484;-76
2022/07/01 01:29:49;;;;;;;5.28;4.43;;;25.70;99.90;;;;;;5034496;28;20032;-76
2022/07/01 01:32:14;;;;;;;6.65;4.15;;;25.60;99.90;;;;;;5016780;28;20029;-76
2022/07/01 01:34:41;;;;;;;10.73;5.25;;;25.60;99.90;;;;;;5034482;28;20045;-76
2022/07/01 01:37:08;;;;;;;7.20;4.18;;;25.60;99.90;;;;;;5013024;28;20044;-76
2022/07/01 01:39:37;;;;;;;6.07;4.55;;;25.60;99.90;;;;;;4996915;28;20026;-76
2022/07/01 01:42:05;;;;;;;13.00;4.70;;;25.60;99.90;;;;;;5014657;28;20126;-76
2022/07/01 01:44:30;;;;;;;7.78;5.65;;;25.60;99.90;;;;;;5014605;28;20112;-76
2022/07/01 01:46:56;;;;;;;9.75;5.65;;;25.60;99.90;;;;;;5014743;28;20108;-76
2022/07/01 01:49:22;;;;;;;7.40;4.43;;;25.60;99.90;;;;;;5014397;28;20033;-76
2022/07/01 01:51:48;;;;;;;5.53;4.22;;;25.60;99.90;;;;;;5014505;28;20030;-76
2022/07/01 01:54:14;;;;;;;6.43;4.40;;;25.60;99.90;;;;;;4997021;28;20028;-76
2022/07/01 01:56:40;;;;;;;9.85;4.50;;;25.60;99.90;;;;;;5014346;28;20026;-76
2022/07/01 01:59:06;;;;;;;8.60;5.03;;;25.60;99.90;;;;;;5014393;28;20025;-76
2022/07/01 02:01:32;;;;;;;6.72;4.35;;;25.60;99.90;;;;;;5014460;28;20506;-76
2022/07/01 02:03:58;;;;;;;5.63;4.65;;;25.60;99.90;;;;;;4996686;28;20063;-77
2022/07/01 02:06:50;;;;;;;5.55;5.03;;;25.60;99.90;;;;;;4996428;28;20030;-76
2022/07/01 02:09:16;;;;;;;6.22;4.63;;;25.60;99.90;;;;;;4994508;28;20023;-77
2022/07/01 02:11:41;;;;;;;8.52;5.07;;;25.60;99.90;;;;;;4994414;28;20061;-76
2022/07/01 02:14:07;;;;;;;8.43;4.82;;;25.50;99.90;;;;;;4992559;28;20022;-77
2022/07/01 02:16:33;;;;;;;9.57;5.30;;;25.60;99.90;;;;;;4992723;28;20026;-76
2022/07/01 02:18:58;;;;;;;10.38;5.03;;;25.50;99.90;;;;;;4974975;28;20026;-76
2022/07/01 02:21:25;;;;;;;8.57;4.80;;;25.50;99.90;;;;;;4991420;28;20033;-76
2022/07/01 02:23:52;;;;;;;9.30;4.78;;;25.50;99.90;;;;;;4975018;28;20454;-77
2022/07/01 02:26:18;;;;;;;9.60;4.70;;;25.50;99.90;;;;;;4992492;28;20011;-77
2022/07/01 02:28:44;;;;;;;11.40;5.15;;;25.50;99.90;;;;;;4992786;28;20053;-76
2022/07/01 02:31:10;;;;;;;6.82;5.03;;;25.50;99.90;;;;;;4994250;28;20022;-77
2022/07/01 02:33:36;;;;;;;9.82;5.50;;;25.50;99.90;;;;;;4994159;28;20105;-77
2022/07/01 02:36:01;;;;;;;8.60;4.55;;;25.50;99.90;;;;;;4994067;28;20393;-76
2022/07/01 02:38:27;;;;;;;9.05;5.93;;;25.50;99.90;;;;;;5008222;28;20017;-76
2022/07/01 02:40:53;;;;;;;5.57;5.07;;;25.50;99.90;;;;;;4995690;28;20030;-76
2022/07/01 02:43:18;;;;;;;9.55;5.70;;;25.40;99.90;;;;;;5013692;28;20038;-76
2022/07/01 02:45:44;;;;;;;6.70;4.43;;;25.40;99.90;;;;;;5013800;28;20026;-76
2022/07/01 02:48:10;;;;;;;6.47;5.15;;;25.40;99.90;;;;;;4994032;28;20034;-76
2022/07/01 02:50:35;;;;;;;13.48;5.45;;;25.40;99.90;;;;;;4994080;28;20514;-76
2022/07/01 02:53:01;;;;;;;7.40;5.28;;;25.40;99.90;;;;;;4993707;28;20030;-76
2022/07/01 02:55:29;;;;;;;11.32;5.90;;;25.50;99.90;;;;;;4993742;28;20113;-76
2022/07/01 02:57:54;;;;;;;8.63;4.88;;;25.50;99.90;;;;;;4993623;28;20054;-76
2022/07/01 03:00:21;;;;;;;6.13;5.35;;;25.50;99.90;;;;;;4993722;28;20073;-77
2022/07/01 03:02:47;;;;;;;7.03;5.07;;;25.60;99.90;;;;;;4993518;28;20097;-76
2022/07/01 03:05:13;;;;;;;9.05;5.45;;;25.60;99.90;;;;;;4993311;28;20138;-76
2022/07/01 03:07:39;;;;;;;9.38;5.10;;;25.60;99.90;;;;;;5009772;28;20391;-77
2022/07/01 03:10:06;;;;;;;10.23;5.28;;;25.60;99.90;;;;;;5032816;28;20033;-76
2022/07/01 03:12:35;;;;;;;9.25;5.75;;;25.50;99.90;;;;;;5014689;28;20104;-77
2022/07/01 03:15:03;;;;;;;10.10;5.18;;;25.50;99.90;;;;;;5032724;28;20026;-76
2022/07/01 03:17:31;;;;;;;7.65;4.22;;;25.40;99.90;;;;;;5032661;28;20016;-77
2022/07/01 03:19:57;;;;;;;9.50;5.13;;;25.40;99.90;;;;;;5032578;28;20022;-76
2022/07/01 03:22:25;;;;;;;10.30;5.22;;;25.30;99.90;;;;;;5032502;28;20093;-76
2022/07/01 03:24:52;;;;;;;7.00;5.50;;;25.30;99.90;;;;;;5014676;28;20080;-77
2022/07/01 03:27:19;;;;;;;11.20;5.32;;;25.30;99.90;;;;;;5032386;28;20045;-76
2022/07/01 03:29:45;;;;;;;8.52;5.55;;;25.20;99.90;;;;;;5014638;28;20509;-76
2022/07/01 03:32:11;;;;;;;10.15;5.30;;;25.20;99.90;;;;;;5031931;28;20100;-76
2022/07/01 03:34:38;;;;;;;8.02;4.88;;;25.20;99.90;;;;;;5032305;28;20111;-76
2022/07/01 03:37:09;;;;;;;9.70;6.10;;;25.20;99.90;;;;;;5014612;28;20021;-77
2022/07/01 03:39:36;;;;;;;7.07;5.10;;;25.20;99.90;;;;;;5014579;28;20026;-76
2022/07/01 03:42:06;;;;;;;7.72;4.88;;;25.30;99.90;;;;;;5032115;28;20033;-76
2022/07/01 03:44:33;;;;;;;12.43;5.38;;;25.30;99.90;;;;;;5032179;28;20049;-76
2022/07/01 03:46:59;;;;;;;13.27;5.20;;;25.40;99.90;;;;;;5014462;28;20040;-76
2022/07/01 03:49:25;;;;;;;11.98;5.00;;;25.40;99.90;;;;;;5031937;28;20475;-76
2022/07/01 03:51:51;;;;;;;6.63;4.63;;;25.50;99.90;;;;;;5032006;28;20037;-76
2022/07/01 03:54:29;;;;;;;9.77;5.18;;;25.50;99.90;;;;;;5031964;28;20021;-76
2022/07/01 03:57:16;;;;;;;11.25;5.70;;;25.50;99.90;;;;;;5032068;28;20387;-77
2022/07/01 03:59:41;;;;;;;15.35;4.78;;;25.50;99.90;;;;;;5031976;28;20112;-75
2022/07/01 04:02:07;;;;;;;10.65;5.03;;;25.60;99.90;;;;;;5031882;28;20152;-76
2022/07/01 04:04:34;;;;;;;13.23;5.05;;;25.60;99.90;;;;;;5013949;28;20057;-76
2022/07/01 04:07:02;;;;;;;9.57;5.65;;;25.50;99.90;;;;;;5011186;28;20487;-76
2022/07/01 04:09:29;;;;;;;6.47;4.80;;;25.50;99.90;;;;;;5011930;28;20080;-76
2022/07/01 04:11:55;;;;;;;9.88;5.30;;;25.50;99.90;;;;;;5011963;28;20029;-76
2022/07/01 04:14:22;;;;;;;8.48;4.70;;;25.50;99.90;;;;;;5011979;28;20026;-76
2022/07/01 04:16:47;;;;;;;9.98;5.22;;;25.50;99.90;;;;;;5011898;28;20045;-76
2022/07/01 04:19:17;;;;;;;7.68;4.75;;;25.50;99.90;;;;;;5011852;28;20060;-75
2022/07/01 04:24:28;;;;;;;7.47;4.65;;;25.40;99.90;;;;;;5011884;28;20041;-76
2022/07/01 04:26:55;;;;;;;9.55;4.65;;;25.30;99.90;;;;;;4994256;28;20026;-76
2022/07/01 04:29:20;;;;;;;10.18;5.07;;;25.30;99.90;;;;;;4994077;28;20049;-76
2022/07/01 04:31:47;;;;;;;7.50;4.72;;;25.30;99.90;;;;;;5011609;28;20053;-76
2022/07/01 04:34:13;;;;;;;7.00;4.88;;;25.30;99.90;;;;;;5011812;28;20073;-76
2022/07/01 04:36:39;;;;;;;9.48;4.50;;;25.30;99.90;;;;;;5011563;28;20022;-77
2022/07/01 04:39:06;;;;;;;10.75;4.78;;;25.30;99.90;;;;;;5031427;28;20022;-76
2022/07/01 04:44:18;;;;;;;5.35;4.55;;;25.40;99.90;;;;;;5033142;28;20068;-76
2022/07/01 04:46:43;;;;;;;4.30;3.92;;;25.40;99.90;;;;;;5005229;28;20160;-76
2022/07/01 04:49:09;;;;;;;10.77;4.45;;;25.50;99.90;;;;;;5002959;28;20492;-76
2022/07/01 04:51:35;;;;;;;5.38;4.15;;;25.60;99.90;;;;;;5003048;28;20392;-76
2022/07/01 04:54:11;;;;;;;8.35;4.53;;;25.60;99.90;;;;;;5004624;28;20494;-76
2022/07/01 04:56:38;;;;;;;9.43;4.20;;;25.70;99.90;;;;;;5003498;28;20014;-76
2022/07/01 04:59:04;;;;;;;4.82;3.80;;;25.70;99.90;;;;;;5003926;28;20029;-76
2022/07/01 05:01:30;;;;;;;6.43;4.53;;;25.70;99.90;;;;;;4987496;28;20028;-76
2022/07/01 05:03:57;;;;;;;13.02;4.38;;;25.80;99.90;;;;;;5012444;28;20046;-76
2022/07/01 05:06:23;;;;;;;4.35;3.95;;;25.70;99.90;;;;;;5015379;28;20030;-76
2022/07/01 05:08:49;;;;;;;8.63;4.50;;;25.80;99.90;;;;;;4997707;28;20372;-76
2022/07/01 05:11:15;;;;;;;12.65;4.25;;;25.80;99.90;;;;;;4995607;28;20025;-76
2022/07/01 05:13:41;;;;;;;9.32;4.13;;;25.90;99.90;;;;;;4978134;28;20473;-76
2022/07/01 05:16:08;;;;;;;7.88;4.40;;;25.80;99.90;;;;;;4995486;28;20485;-76
2022/07/01 05:24:07;;;;;;;5.55;3.78;;;25.90;99.90;;;;;;4995103;28;20523;-76
2022/07/01 05:26:33;;;;;;;5.95;3.97;;;25.90;99.90;;;;;;4976126;28;20030;-76
2022/07/01 05:28:58;;;;;;;7.38;4.07;;;25.80;99.90;;;;;;4993282;28;20050;-76
2022/07/01 05:31:24;;;;;;;6.75;4.60;;;25.80;99.90;;;;;;4993367;28;20037;-77
2022/07/01 05:33:50;;;;;;;8.70;4.30;;;25.80;99.90;;;;;;4993333;28;20055;-76
2022/07/01 05:36:15;;;;;;;10.85;5.53;;;25.80;99.90;;;;;;4993349;28;20018;-76
2022/07/01 05:38:41;;;;;;;12.10;5.30;;;25.80;99.90;;;;;;4991930;28;20395;-76
2022/07/01 05:41:07;;;;;;;12.10;5.40;;;25.80;99.90;;;;;;4997201;28;20026;-76
2022/07/01 05:43:34;;;;;;;6.75;6.03;;;25.80;99.90;;;;;;5014598;28;20040;-76
2022/07/01 05:46:00;;;;;;;11.18;5.35;;;25.80;99.90;;;;;;5014474;28;20029;-76
2022/07/01 05:48:26;;;;;;;12.68;5.60;;;25.90;99.90;;;;;;5014616;28;20124;-76
2022/07/01 05:50:52;;;;;;;12.15;5.75;;;26.00;99.90;;;;;;5014550;28;20519;-76
2022/07/01 05:53:18;;;;;;;11.32;7.00;;;26.00;99.90;;;;;;4996752;28;20040;-76
2022/07/01 05:55:44;;;;;;;12.70;5.63;;;26.10;99.90;;;;;;5014356;28;20475;-76
2022/07/01 05:58:11;;;;;;;12.15;8.02;;;26.10;99.90;;;;;;4996505;28;20026;-76
2022/07/01 06:00:41;;;;;;;15.77;7.50;;;26.10;99.90;;;;;;4996593;28;20034;-76
2022/07/01 06:03:11;;;;;;;7.72;6.40;;;26.10;99.90;;;;;;5014092;28;20014;-76
2022/07/01 06:05:37;;;;;;;12.98;7.63;;;26.20;99.90;;;;;;5014235;28;20067;-76
2022/07/01 06:08:03;;;;;;;12.05;6.40;;;26.20;99.90;;;;;;5002839;28;20563;-76
2022/07/01 06:10:29;;;;;;;14.50;6.45;;;26.20;99.90;;;;;;4994697;28;20054;-76
2022/07/01 06:12:55;;;;;;;11.25;7.18;;;26.20;99.90;;;;;;4994414;28;20061;-76
2022/07/01 06:15:20;;;;;;;13.88;6.25;;;26.20;99.90;;;;;;4994587;28;20027;-76
2022/07/01 06:17:46;;;;;;;15.45;7.22;;;26.20;99.90;;;;;;4976959;28;20019;-76
2022/07/01 06:20:12;;;;;;;13.70;6.03;;;26.20;99.90;;;;;;4994669;28;20027;-76
2022/07/01 06:22:38;;;;;;;8.40;6.50;;;26.30;99.90;;;;;;4976900;28;20022;-76
2022/07/01 06:25:04;;;;;;;12.93;7.30;;;26.30;99.90;;;;;;4993979;28;20484;-76
2022/07/01 06:27:30;;;;;;;14.25;7.57;;;26.40;99.90;;;;;;4994364;28;20023;-76
2022/07/01 06:29:55;;;;;;;11.85;7.93;;;26.40;99.90;;;;;;4994075;28;20038;-76
2022/07/01 06:32:21;;;;;;;17.20;7.15;;;26.40;99.90;;;;;;4994202;28;20062;-76
2022/07/01 06:34:48;;;;;;;11.45;7.55;;;26.50;99.90;;;;;;4994142;28;20034;-75
2022/07/01 06:37:14;;;;;;;13.50;7.53;;;26.50;99.90;;;;;;4998937;28;20026;-76
2022/07/01 06:39:39;;;;;;;13.57;7.68;;;26.60;99.90;;;;;;5013556;28;20048;-76
2022/07/01 06:42:06;;;;;;;14.27;7.63;;;26.60;99.90;;;;;;5012871;28;20053;-76
2022/07/01 06:44:31;;;;;;;16.75;7.60;;;26.60;99.90;;;;;;5013721;28;20079;-76
2022/07/01 06:46:57;;;;;;;12.52;7.22;;;26.60;99.90;;;;;;5010002;28;20097;-76
2022/07/01 06:49:23;;;;;;;12.13;7.70;;;26.60;99.90;;;;;;5013414;28;20496;-76
2022/07/01 06:51:48;;;;;;;14.30;7.00;;;26.70;99.90;;;;;;5012044;28;20438;-76
2022/07/01 06:54:16;;;;;;;10.60;7.75;;;26.70;99.90;;;;;;5012427;28;20022;-76
2022/07/01 06:56:41;;;;;;;19.17;7.43;;;26.80;99.90;;;;;;4995785;28;20459;-76
2022/07/01 06:59:07;;;;;;;9.13;7.05;;;26.80;99.90;;;;;;4995553;28;20117;-76
2022/07/01 07:01:33;;;;;;;14.07;6.63;;;26.80;99.90;;;;;;5013163;28;20030;-76
2022/07/01 07:03:59;;;;;;;13.77;8.32;;;26.80;99.90;;;;;;4995581;28;20064;-76
2022/07/01 07:06:25;;;;;;;13.23;7.28;;;26.90;99.90;;;;;;5012562;28;20025;-75
2022/07/01 07:08:50;;;;;;;15.75;7.20;;;26.90;99.90;;;;;;5030876;28;20076;-76
2022/07/01 07:11:19;;;;;;;17.08;6.57;;;26.90;99.90;;;;;;5032730;28;20075;-76
2022/07/01 07:13:44;;;;;;;13.43;7.03;;;27.00;99.90;;;;;;5032697;28;20040;-76
2022/07/01 07:16:10;;;;;;;13.60;6.38;;;27.00;99.90;;;;;;5032572;28;20014;-76
2022/07/01 07:18:36;;;;;;;16.17;6.07;;;27.00;99.90;;;;;;5032754;28;20022;-76
2022/07/01 07:21:03;;;;;;;14.55;5.85;;;27.10;99.90;;;;;;5032407;28;20026;-76
2022/07/01 07:23:28;;;;;;;13.23;6.95;;;27.10;99.90;;;;;;5015808;28;20029;-76
2022/07/01 07:25:54;;;;;;;12.45;6.40;;;27.10;99.90;;;;;;5033614;28;20086;-76
2022/07/01 07:28:20;;;;;;;17.92;7.63;;;27.20;99.90;;;;;;5033511;28;20025;-76
2022/07/01 07:30:46;;;;;;;13.15;6.80;;;27.20;99.90;;;;;;5033388;28;20057;-76
2022/07/01 07:33:12;;;;;;;14.43;6.40;;;27.30;99.90;;;;;;5033102;28;20082;-76
2022/07/01 07:35:37;;;;;;;12.05;6.82;;;27.30;99.90;;;;;;5033260;28;20034;-76
2022/07/01 07:38:03;;;;;;;14.02;7.10;;;27.30;99.90;;;;;;5003670;28;20022;-76
2022/07/01 07:40:29;;;;;;;12.55;6.70;;;27.30;99.90;;;;;;4995556;28;20468;-76
2022/07/01 07:42:54;;;;;;;16.50;6.30;;;27.40;99.90;;;;;;5013301;28;20033;-76
2022/07/01 07:45:21;;;;;;;14.07;6.40;;;27.50;99.90;;;;;;5013188;28;20070;-76
2022/07/01 07:47:48;;;;;;;16.23;7.03;;;27.60;99.90;;;;;;5013392;28;20032;-76
2022/07/01 07:50:15;;;;;;;14.20;7.18;;;27.70;99.90;;;;;;5013558;28;20111;-75
2022/07/01 07:52:42;;;;;;;13.55;5.80;;;27.70;99.90;;;;;;4993837;28;20377;-76
2022/07/01 07:55:09;;;;;;;13.20;6.20;;;27.80;99.90;;;;;;5010174;28;20026;-76
2022/07/01 07:57:39;;;;;;;10.65;5.97;;;27.80;99.90;;;;;;5009843;28;20365;-76
2022/07/01 08:00:08;;;;;;;7.05;5.80;;;27.90;99.90;;;;;;5017889;28;20141;-76
2022/07/01 08:02:34;;;;;;;9.45;7.25;;;27.90;99.90;;;;;;5030404;28;20034;-76
2022/07/01 08:05:00;;;;;;;14.07;6.85;;;28.00;99.90;;;;;;5029710;28;20049;-76
2022/07/01 08:07:25;;;;;;;14.90;7.00;;;28.00;99.90;;;;;;5008100;28;20030;-76
2022/07/01 08:09:51;;;;;;;11.00;6.97;;;28.00;99.90;;;;;;5010155;28;20049;-76
2022/07/01 08:12:17;;;;;;;14.48;6.38;;;28.10;99.90;;;;;;5009856;28;20033;-76
2022/07/01 08:14:43;;;;;;;12.57;7.45;;;28.20;99.90;;;;;;5009703;28;20113;-77
2022/07/01 08:17:09;;;;;;;13.63;6.97;;;28.20;99.90;;;;;;4992599;28;20779;-76
2022/07/01 08:19:35;;;;;;;11.50;6.40;;;28.30;99.90;;;;;;5008678;28;20100;-76
2022/07/01 08:22:01;;;;;;;13.43;7.43;;;28.30;99.90;;;;;;5012423;28;20117;-76
2022/07/01 08:24:27;;;;;;;19.02;7.30;;;28.40;99.90;;;;;;4995287;28;20033;-76
2022/07/01 08:26:52;;;;;;;11.35;5.85;;;28.50;99.90;;;;;;4995257;28;20053;-76
2022/07/01 08:29:18;;;;;;;17.75;7.82;;;28.60;99.90;;;;;;5012694;28;20117;-76
2022/07/01 08:31:44;;;;;;;11.10;6.70;;;28.60;99.90;;;;;;4976733;28;20492;-76
2022/07/01 08:34:09;;;;;;;12.00;6.20;;;28.70;99.90;;;;;;4988864;28;20057;-76
2022/07/01 08:36:36;;;;;;;13.68;6.68;;;28.70;99.90;;;;;;4991032;28;20014;-76
2022/07/01 08:39:02;;;;;;;12.65;7.35;;;28.80;99.90;;;;;;4986371;28;20022;-76
2022/07/01 08:41:28;;;;;;;8.23;6.30;;;28.80;99.90;;;;;;5007097;28;20053;-76
2022/07/01 08:43:54;;;;;;;14.23;6.75;;;28.90;99.90;;;;;;5000336;28;20037;-76
2022/07/01 08:46:21;;;;;;;14.68;6.53;;;29.00;99.90;;;;;;5007032;28;20045;-76
2022/07/01 08:48:50;;;;;;;8.43;6.25;;;29.10;99.90;;;;;;4989092;28;20034;-76
2022/07/01 08:51:16;;;;;;;14.90;7.22;;;29.10;99.90;;;;;;5007683;28;20026;-77
2022/07/01 08:53:41;;;;;;;12.30;6.38;;;29.20;99.90;;;;;;5007010;28;20415;-76
2022/07/01 08:58:55;;;;;;;9.00;5.53;;;29.10;99.90;;;;;;4987446;28;20041;-76
2022/07/01 09:01:25;;;;;;;19.98;6.95;;;29.10;99.90;;;;;;4988045;28;20023;-77
2022/07/01 09:04:11;;;;;;;11.98;6.18;;;29.20;99.90;;;;;;4987803;28;20046;-76
2022/07/01 09:06:37;;;;;;;10.38;5.03;;;29.10;99.90;;;;;;4970363;28;20361;-77
2022/07/01 09:09:13;;;;;;;11.95;5.88;;;29.20;99.90;;;;;;5006795;28;20030;-76
2022/07/01 09:11:53;;;;;;;10.23;5.45;;;29.20;99.90;;;;;;4988917;28;20126;-77
2022/07/01 09:14:21;;;;;;;10.85;5.50;;;29.10;99.90;;;;;;5006800;28;20026;-76
2022/07/01 09:16:55;;;;;;;10.95;5.80;;;29.10;99.90;;;;;;5006614;28;20034;-76
2022/07/01 09:19:22;;;;;;;9.35;5.95;;;29.20;99.90;;;;;;4989406;28;20521;-76
2022/07/01 09:21:56;;;;;;;6.95;5.15;;;29.10;99.90;;;;;;5007463;28;20025;-76
2022/07/01 09:24:25;;;;;;;11.30;6.93;;;29.20;99.90;;;;;;5007277;28;20424;-75
2022/07/01 09:26:56;;;;;;;14.63;6.05;;;29.20;99.90;;;;;;4988957;28;20462;-77
2022/07/01 09:29:31;;;;;;;11.32;6.00;;;29.20;99.90;;;;;;4983352;28;20033;-76
2022/07/01 09:31:58;;;;;;;10.35;6.25;;;29.30;99.90;;;;;;4973555;28;20076;-78
2022/07/01 09:34:24;;;;;;;12.20;7.15;;;29.40;99.90;;;;;;4974026;28;20137;-77
2022/07/01 09:36:55;;;;;;;12.20;6.53;;;29.50;99.90;;;;;;4974864;28;20065;-76
2022/07/01 09:39:22;;;;;;;12.82;6.45;;;29.50;99.90;;;;;;5010869;28;20033;-77
2022/07/01 09:41:48;;;;;;;9.40;5.40;;;29.40;99.90;;;;;;5010983;28;20084;-76
2022/07/01 09:44:13;;;;;;;13.77;6.25;;;29.50;99.90;;;;;;5010248;28;20104;-76
2022/07/01 09:46:52;;;;;;;11.52;5.85;;;29.60;99.90;;;;;;5011056;28;20125;-77
2022/07/01 09:49:18;;;;;;;12.32;6.30;;;29.70;99.90;;;;;;5010938;28;20022;-76
2022/07/01 09:51:44;;;;;;;9.80;4.32;;;29.80;99.70;;;;;;5010028;28;20391;-77
2022/07/01 09:54:12;;;;;;;8.80;4.20;;;30.00;99.50;;;;;;5010362;28;20029;-78
2022/07/01 09:56:38;;;;;;;6.57;4.10;;;30.10;97.10;;;;;;4994409;28;20377;-76
2022/07/01 09:59:04;;;;;;;11.48;3.53;;;30.20;96.80;;;;;;4990490;28;20030;-76
2022/07/01 10:01:32;;;;;;;11.10;3.97;;;30.30;96.50;;;;;;4990786;28;20086;-76
2022/07/01 10:04:00;;;;;;;5.47;3.70;;;30.40;96.90;;;;;;4992187;28;20042;-76
2022/07/01 10:06:29;;;;;;;13.02;4.50;;;30.50;96.30;;;;;;4973995;28;20066;-76
2022/07/01 10:09:13;;;;;;;6.22;3.80;;;30.60;96.30;;;;;;5010654;28;20037;-76
2022/07/01 10:11:42;;;;;;;6.50;3.00;;;30.70;95.00;;;;;;4993484;28;20037;-76
2022/07/01 10:14:11;;;;;;;7.03;3.90;;;30.80;94.50;;;;;;5010660;28;20041;-76
2022/07/01 10:16:38;;;;;;;8.35;3.70;;;30.90;94.70;;;;;;5010867;28;20035;-76
2022/07/01 10:19:26;;;;;;;5.55;3.88;;;31.00;93.40;;;;;;5009867;28;20022;-76
2022/07/01 10:21:56;;;;;;;4.80;2.88;;;31.10;92.50;;;;;;4993019;28;20026;-76
2022/07/01 10:24:23;;;;;;;4.78;2.35;;;31.10;90.90;;;;;;4992452;28;20029;-76
2022/07/01 10:26:49;;;;;;;9.02;3.47;;;31.30;86.80;;;;;;5010352;28;20029;-75
2022/07/01 10:29:34;;;;;;;4.68;3.35;;;31.30;83.90;;;;;;5010837;28;20025;-75
2022/07/01 10:32:22;;;;;;;6.05;3.20;;;31.30;88.40;;;;;;5010827;28;20068;-76
2022/07/01 10:34:48;;;;;;;6.50;3.22;;;31.20;86.30;;;;;;4979940;28;20022;-76
2022/07/01 10:37:17;;;;;;;5.05;3.05;;;31.20;83.10;;;;;;5011391;28;20045;-76
2022/07/01 10:40:03;;;;;;;11.00;3.50;;;31.30;83.80;;;;;;5010915;28;20056;-76
2022/07/01 10:42:36;;;;;;;5.05;3.25;;;31.50;84.80;;;;;;5010087;28;20080;-76
2022/07/01 10:45:09;;;;;;;9.82;3.47;;;31.60;85.00;;;;;;5010851;28;20025;-76
2022/07/01 10:47:36;;;;;;;7.53;3.90;;;31.60;85.00;;;;;;5010650;28;20034;-76
2022/07/01 10:50:12;;;;;;;3.45;3.13;;;31.80;85.20;;;;;;5010807;28;20018;-75
2022/07/01 10:52:39;;;;;;;3.40;3.10;;;31.90;83.80;;;;;;5001678;28;20030;-76
2022/07/01 10:55:09;;;;;;;6.25;2.80;;;32.00;82.40;;;;;;4991691;28;20023;-76
2022/07/01 10:57:39;;;;;;;6.40;2.88;;;32.10;83.00;;;;;;4973485;28;20472;-76
2022/07/01 11:00:04;;;;;;;4.07;3.67;;;32.20;80.90;;;;;;4973227;28;20022;-76
2022/07/01 11:02:31;;;;;;;3.60;3.30;;;32.40;79.00;;;;;;4991641;28;20778;-76
2022/07/01 11:05:09;;;;;;;5.75;3.40;;;32.40;75.20;;;;;;4990800;28;20101;-76
2022/07/01 11:07:39;;;;;;;4.35;3.08;;;32.30;80.10;;;;;;4988346;28;20079;-76
2022/07/01 11:10:08;;;;;;;8.05;3.25;;;32.00;81.80;;;;;;5030396;28;20039;-76
2022/07/01 11:12:34;;;;;;;7.50;3.45;;;32.10;80.70;;;;;;5030783;28;20494;-77
2022/07/01 11:15:05;;;;;;;11.27;3.17;;;32.20;81.10;;;;;;5030398;28;20104;-76
2022/07/01 11:17:32;;;;;;;6.65;2.90;;;32.30;79.50;;;;;;5029949;28;20022;-76
2022/07/01 11:20:01;;;;;;;7.57;3.40;;;32.30;77.00;;;;;;5030531;28;20052;-76
2022/07/01 11:22:29;;;;;;;12.13;4.53;;;32.40;73.90;;;;;;5012066;28;20030;-76
2022/07/01 11:24:58;;;;;;;4.35;2.85;;;32.40;73.70;;;;;;5029811;28;20068;-76
2022/07/01 11:27:24;;;;;;;7.47;3.08;;;32.40;73.20;;;;;;5030578;28;20610;-76
2022/07/01 11:30:05;;;;;;;3.47;2.40;;;32.60;73.40;;;;;;5029969;28;20096;-76
2022/07/01 11:32:35;;;;;;;5.07;2.95;;;32.80;70.10;;;;;;5029655;28;20025;-76
2022/07/01 11:35:03;;;;;;;4.68;2.78;;;32.90;77.20;;;;;;5012182;28;20036;-76
2022/07/01 11:40:18;;;;;;;4.90;2.92;;;33.20;73.20;;;;;;5010447;28;20081;-76
2022/07/01 11:42:45;;;;;;;3.78;2.60;;;33.30;74.80;;;;;;4992725;28;20029;-76
2022/07/01 11:45:25;;;;;;;3.80;2.88;;;33.30;73.60;;;;;;5010487;28;20633;-76
2022/07/01 11:47:51;;;;;;;4.28;2.83;;;33.10;73.80;;;;;;5010344;28;20091;-76
2022/07/01 11:50:17;;;;;;;3.30;3.00;;;32.80;74.00;;;;;;5010026;28;20076;-76
2022/07/01 11:52:42;;;;;;;7.75;3.00;;;32.80;74.60;;;;;;5012071;28;20435;-76
2022/07/01 11:55:09;;;;;;;5.85;3.33;;;33.10;76.30;;;;;;5013665;28;20022;-76
2022/07/01 11:57:34;;;;;;;6.45;3.00;;;33.30;73.50;;;;;;5013083;28;20371;-76
2022/07/01 12:00:10;;;;;;;6.05;3.15;;;33.50;72.50;;;;;;5013456;28;20029;-76
2022/07/01 12:02:36;;;;;;;8.57;3.28;;;33.40;72.50;;;;;;5013191;28;20035;-76
2022/07/01 12:05:02;;;;;;;5.45;2.72;;;33.50;71.80;;;;;;5009955;28;20049;-76
2022/07/01 12:07:28;;;;;;;3.55;2.78;;;33.70;72.60;;;;;;5010213;28;20045;-76
2022/07/01 12:09:54;;;;;;;5.68;3.08;;;33.80;72.00;;;;;;5020400;28;20068;-76
2022/07/01 12:12:23;;;;;;;5.53;2.30;;;33.90;71.70;;;;;;5029354;28;20053;-76
2022/07/01 12:14:57;;;;;;;10.07;3.17;;;34.10;69.80;;;;;;5028499;28;20033;-76
2022/07/01 12:17:24;;;;;;;4.40;2.60;;;34.20;70.00;;;;;;5030018;28;20124;-76
2022/07/01 12:19:51;;;;;;;5.03;3.15;;;34.30;68.70;;;;;;5001967;28;20029;-76
2022/07/01 12:22:21;;;;;;;6.97;2.63;;;34.50;69.00;;;;;;5009841;28;20101;-76
2022/07/01 12:25:04;;;;;;;5.22;2.80;;;34.70;67.70;;;;;;5010009;28;20032;-76
2022/07/01 12:27:34;;;;;;;6.82;3.05;;;34.50;66.30;;;;;;4995194;28;20551;-76
2022/07/01 12:30:00;;;;;;;3.42;2.60;;;34.20;63.40;;;;;;5012589;28;20054;-76
2022/07/01 12:32:28;;;;;;;3.83;2.33;;;34.20;63.70;;;;;;4994327;28;20057;-76
2022/07/01 12:34:56;;;;;;;3.17;2.85;;;34.50;62.40;;;;;;4994402;28;20061;-76
2022/07/01 12:37:30;;;;;;;5.90;2.67;;;34.50;64.30;;;;;;5012163;28;20029;-76
2022/07/01 12:40:19;;;;;;;7.55;2.65;;;34.30;63.00;;;;;;5012660;28;20465;-76
2022/07/01 12:42:48;;;;;;;4.72;2.15;;;34.40;62.10;;;;;;5011880;28;20029;-76
2022/07/01 12:45:21;;;;;;;8.10;2.78;;;34.40;60.10;;;;;;5012373;28;20025;-75
2022/07/01 12:47:49;;;;;;;4.10;2.45;;;34.50;63.10;;;;;;5012561;28;20022;-76
2022/07/01 12:50:19;;;;;;;3.67;2.60;;;34.60;60.40;;;;;;5012777;28;20357;-76
2022/07/01 12:53:07;;;;;;;6.07;2.72;;;34.60;61.10;;;;;;5011304;28;20081;-76
2022/07/01 12:55:37;;;;;;;2.95;2.58;;;34.60;61.50;;;;;;4993236;28;20027;-76
2022/07/01 12:58:08;;;;;;;5.65;2.60;;;34.60;61.20;;;;;;4975570;28;20026;-75
2022/07/01 13:00:35;;;;;;;2.80;2.60;;;34.50;60.10;;;;;;4975709;28;20361;-76
2022/07/01 13:03:03;;;;;;;6.65;2.65;;;34.50;60.80;;;;;;4975531;28;20468;-75